sensor_id;sensor_type;location;lat;lon;timestamp;P1;durP1;ratioP1;P2;durP2;ratioP2
31482;SDS011;18103;52.246;8.052;2023-03-03T00:00:39;31.13;;;11.83;;
31482;SDS011;18103;52.246;8.052;2023-03-03T00:03:06;34.20;;;10.87;;
31482;SDS011;18103;52.246;8.052;2023-03-03T00:05:34;37.40;;;10.80;;
31482;SDS011;18103;52.246;8.052;2023-03-03T00:08:00;31.20;;;12.07;;
31482;SDS011;18103;52.246;8.052;2023-03-03T00:10:26;30.73;;;10.70;;
31482;SDS011;18103;52.246;8.052;2023-03-03T00:12:52;30.07;;;10.40;;
31482;SDS011;18103;52.246;8.052;2023-03-03T00:15:19;27.80;;;10.87;;
31482;SDS011;18103;52.246;8.052;2023-03-03T00:17:46;30.03;;;9.57;;
31482;SDS011;18103;52.246;8.052;2023-03-03T00:20:24;22.47;;;9.10;;
31482;SDS011;18103;52.246;8.052;2023-03-03T00:26:24;25.53;;;10.67;;
31482;SDS011;18103;52.246;8.052;2023-03-03T00:28:54;28.67;;;9.93;;
31482;SDS011;18103;52.246;8.052;2023-03-03T00:31:34;26.70;;;11.17;;
31482;SDS011;18103;52.246;8.052;2023-03-03T00:34:23;35.33;;;10.53;;
31482;SDS011;18103;52.246;8.052;2023-03-03T00:36:50;30.87;;;11.53;;
31482;SDS011;18103;52.246;8.052;2023-03-03T00:41:50;28.17;;;10.33;;
31482;SDS011;18103;52.246;8.052;2023-03-03T00:52:30;36.33;;;11.40;;
31482;SDS011;18103;52.246;8.052;2023-03-03T00:54:59;30.93;;;10.90;;
31482;SDS011;18103;52.246;8.052;2023-03-03T00:57:24;36.80;;;12.03;;
31482;SDS011;18103;52.246;8.052;2023-03-03T00:59:50;31.60;;;11.17;;
31482;SDS011;18103;52.246;8.052;2023-03-03T01:02:15;39.67;;;12.93;;
31482;SDS011;18103;52.246;8.052;2023-03-03T01:04:40;35.57;;;12.07;;
31482;SDS011;18103;52.246;8.052;2023-03-03T01:07:08;38.83;;;12.37;;
31482;SDS011;18103;52.246;8.052;2023-03-03T01:09:34;33.03;;;10.60;;
31482;SDS011;18103;52.246;8.052;2023-03-03T01:11:59;35.97;;;11.60;;
31482;SDS011;18103;52.246;8.052;2023-03-03T01:14:25;34.03;;;10.77;;
31482;SDS011;18103;52.246;8.052;2023-03-03T01:16:50;42.70;;;12.13;;
31482;SDS011;18103;52.246;8.052;2023-03-03T01:19:16;34.10;;;11.50;;
31482;SDS011;18103;52.246;8.052;2023-03-03T01:21:41;31.77;;;11.23;;
31482;SDS011;18103;52.246;8.052;2023-03-03T01:24:06;31.90;;;11.77;;
31482;SDS011;18103;52.246;8.052;2023-03-03T01:26:32;33.97;;;11.53;;
31482;SDS011;18103;52.246;8.052;2023-03-03T01:28:57;40.13;;;11.97;;
31482;SDS011;18103;52.246;8.052;2023-03-03T01:31:23;32.27;;;11.17;;
31482;SDS011;18103;52.246;8.052;2023-03-03T01:33:48;30.67;;;11.47;;
31482;SDS011;18103;52.246;8.052;2023-03-03T01:36:14;35.00;;;11.73;;
31482;SDS011;18103;52.246;8.052;2023-03-03T01:38:39;28.07;;;9.27;;
31482;SDS011;18103;52.246;8.052;2023-03-03T01:41:05;30.03;;;8.80;;
31482;SDS011;18103;52.246;8.052;2023-03-03T01:43:31;24.60;;;9.83;;
31482;SDS011;18103;52.246;8.052;2023-03-03T01:51:25;36.03;;;9.77;;
31482;SDS011;18103;52.246;8.052;2023-03-03T01:53:54;26.83;;;9.43;;
31482;SDS011;18103;52.246;8.052;2023-03-03T01:56:22;31.47;;;8.40;;
31482;SDS011;18103;52.246;8.052;2023-03-03T01:58:49;29.13;;;9.80;;
31482;SDS011;18103;52.246;8.052;2023-03-03T02:01:28;21.55;;;7.90;;
31482;SDS011;18103;52.246;8.052;2023-03-03T02:03:56;32.03;;;9.38;;
31482;SDS011;18103;52.246;8.052;2023-03-03T02:06:23;31.27;;;9.70;;
31482;SDS011;18103;52.246;8.052;2023-03-03T02:08:59;26.83;;;9.77;;
31482;SDS011;18103;52.246;8.052;2023-03-03T02:11:37;25.03;;;8.50;;
31482;SDS011;18103;52.246;8.052;2023-03-03T02:14:04;27.20;;;9.30;;
31482;SDS011;18103;52.246;8.052;2023-03-03T02:16:30;28.47;;;8.77;;
31482;SDS011;18103;52.246;8.052;2023-03-03T02:18:55;23.30;;;8.77;;
31482;SDS011;18103;52.246;8.052;2023-03-03T02:21:21;35.27;;;10.17;;
31482;SDS011;18103;52.246;8.052;2023-03-03T02:26:28;30.10;;;10.25;;
31482;SDS011;18103;52.246;8.052;2023-03-03T02:28:55;28.77;;;10.52;;
31482;SDS011;18103;52.246;8.052;2023-03-03T02:31:22;29.30;;;9.03;;
31482;SDS011;18103;52.246;8.052;2023-03-03T02:33:51;33.70;;;10.63;;
31482;SDS011;18103;52.246;8.052;2023-03-03T02:36:19;28.03;;;9.93;;
31482;SDS011;18103;52.246;8.052;2023-03-03T02:44:24;25.65;;;8.20;;
31482;SDS011;18103;52.246;8.052;2023-03-03T02:46:52;26.10;;;8.45;;
31482;SDS011;18103;52.246;8.052;2023-03-03T02:49:20;26.55;;;8.73;;
31482;SDS011;18103;52.246;8.052;2023-03-03T02:51:47;17.00;;;6.67;;
31482;SDS011;18103;52.246;8.052;2023-03-03T02:54:13;13.07;;;4.80;;
31482;SDS011;18103;52.246;8.052;2023-03-03T02:56:40;23.27;;;8.45;;
31482;SDS011;18103;52.246;8.052;2023-03-03T02:59:06;23.17;;;7.27;;
31482;SDS011;18103;52.246;8.052;2023-03-03T03:01:32;26.73;;;8.83;;
31482;SDS011;18103;52.246;8.052;2023-03-03T03:04:23;22.05;;;8.65;;
31482;SDS011;18103;52.246;8.052;2023-03-03T03:06:47;24.50;;;7.07;;
31482;SDS011;18103;52.246;8.052;2023-03-03T03:09:14;27.93;;;9.17;;
31482;SDS011;18103;52.246;8.052;2023-03-03T03:11:40;18.95;;;7.03;;
31482;SDS011;18103;52.246;8.052;2023-03-03T03:14:07;19.65;;;8.02;;
31482;SDS011;18103;52.246;8.052;2023-03-03T03:16:34;17.27;;;6.88;;
31482;SDS011;18103;52.246;8.052;2023-03-03T03:19:00;19.90;;;7.17;;
31482;SDS011;18103;52.246;8.052;2023-03-03T03:21:26;18.40;;;6.70;;
31482;SDS011;18103;52.246;8.052;2023-03-03T03:23:52;22.53;;;7.63;;
31482;SDS011;18103;52.246;8.052;2023-03-03T03:26:17;20.63;;;6.33;;
31482;SDS011;18103;52.246;8.052;2023-03-03T03:28:45;17.67;;;7.20;;
31482;SDS011;18103;52.246;8.052;2023-03-03T03:31:11;20.93;;;7.90;;
31482;SDS011;18103;52.246;8.052;2023-03-03T03:33:36;20.73;;;7.23;;
31482;SDS011;18103;52.246;8.052;2023-03-03T03:36:02;19.73;;;7.13;;
31482;SDS011;18103;52.246;8.052;2023-03-03T03:38:28;18.98;;;6.13;;
31482;SDS011;18103;52.246;8.052;2023-03-03T03:40:55;29.42;;;7.20;;
31482;SDS011;18103;52.246;8.052;2023-03-03T03:43:21;17.73;;;6.27;;
31482;SDS011;18103;52.246;8.052;2023-03-03T03:45:46;19.23;;;6.90;;
31482;SDS011;18103;52.246;8.052;2023-03-03T03:48:12;19.73;;;6.53;;
31482;SDS011;18103;52.246;8.052;2023-03-03T03:50:38;25.93;;;7.83;;
31482;SDS011;18103;52.246;8.052;2023-03-03T03:53:04;24.83;;;6.97;;
31482;SDS011;18103;52.246;8.052;2023-03-03T03:55:30;17.23;;;6.82;;
31482;SDS011;18103;52.246;8.052;2023-03-03T03:57:56;20.60;;;7.60;;
31482;SDS011;18103;52.246;8.052;2023-03-03T04:00:21;27.30;;;8.47;;
31482;SDS011;18103;52.246;8.052;2023-03-03T04:02:48;23.55;;;7.55;;
31482;SDS011;18103;52.246;8.052;2023-03-03T04:05:13;18.90;;;6.83;;
31482;SDS011;18103;52.246;8.052;2023-03-03T04:07:39;26.10;;;7.77;;
31482;SDS011;18103;52.246;8.052;2023-03-03T04:10:04;21.83;;;7.70;;
31482;SDS011;18103;52.246;8.052;2023-03-03T04:12:30;20.93;;;5.83;;
31482;SDS011;18103;52.246;8.052;2023-03-03T04:15:02;22.73;;;7.47;;
31482;SDS011;18103;52.246;8.052;2023-03-03T04:17:30;19.25;;;7.22;;
31482;SDS011;18103;52.246;8.052;2023-03-03T04:19:55;17.17;;;6.33;;
31482;SDS011;18103;52.246;8.052;2023-03-03T04:22:21;18.90;;;8.20;;
31482;SDS011;18103;52.246;8.052;2023-03-03T04:24:46;16.43;;;6.00;;
31482;SDS011;18103;52.246;8.052;2023-03-03T04:27:12;20.17;;;6.90;;
31482;SDS011;18103;52.246;8.052;2023-03-03T04:29:39;14.33;;;6.23;;
31482;SDS011;18103;52.246;8.052;2023-03-03T04:32:05;15.93;;;6.17;;
31482;SDS011;18103;52.246;8.052;2023-03-03T04:34:30;22.57;;;6.77;;
31482;SDS011;18103;52.246;8.052;2023-03-03T04:36:56;20.33;;;5.97;;
31482;SDS011;18103;52.246;8.052;2023-03-03T04:39:21;17.07;;;6.43;;
31482;SDS011;18103;52.246;8.052;2023-03-03T04:41:46;20.03;;;6.90;;
31482;SDS011;18103;52.246;8.052;2023-03-03T04:44:12;14.80;;;5.93;;
31482;SDS011;18103;52.246;8.052;2023-03-03T04:46:37;19.70;;;6.97;;
31482;SDS011;18103;52.246;8.052;2023-03-03T04:49:02;19.43;;;7.13;;
31482;SDS011;18103;52.246;8.052;2023-03-03T04:51:28;18.33;;;7.43;;
31482;SDS011;18103;52.246;8.052;2023-03-03T04:53:53;23.20;;;7.03;;
31482;SDS011;18103;52.246;8.052;2023-03-03T04:56:19;19.83;;;7.60;;
31482;SDS011;18103;52.246;8.052;2023-03-03T04:58:44;18.00;;;6.50;;
31482;SDS011;18103;52.246;8.052;2023-03-03T05:01:12;21.33;;;7.40;;
31482;SDS011;18103;52.246;8.052;2023-03-03T05:03:38;15.48;;;6.93;;
31482;SDS011;18103;52.246;8.052;2023-03-03T05:06:04;25.83;;;6.97;;
31482;SDS011;18103;52.246;8.052;2023-03-03T05:08:30;17.77;;;5.70;;
31482;SDS011;18103;52.246;8.052;2023-03-03T05:10:55;26.57;;;6.73;;
31482;SDS011;18103;52.246;8.052;2023-03-03T05:13:23;18.77;;;7.47;;
31482;SDS011;18103;52.246;8.052;2023-03-03T05:15:51;27.25;;;7.18;;
31482;SDS011;18103;52.246;8.052;2023-03-03T05:18:19;17.30;;;5.55;;
31482;SDS011;18103;52.246;8.052;2023-03-03T05:20:45;25.08;;;8.82;;
31482;SDS011;18103;52.246;8.052;2023-03-03T05:23:11;27.90;;;7.77;;
31482;SDS011;18103;52.246;8.052;2023-03-03T05:25:36;21.40;;;7.37;;
31482;SDS011;18103;52.246;8.052;2023-03-03T05:28:02;16.90;;;6.13;;
31482;SDS011;18103;52.246;8.052;2023-03-03T05:30:28;30.93;;;8.60;;
31482;SDS011;18103;52.246;8.052;2023-03-03T05:32:54;24.83;;;6.80;;
31482;SDS011;18103;52.246;8.052;2023-03-03T05:35:19;27.67;;;8.37;;
31482;SDS011;18103;52.246;8.052;2023-03-03T05:37:45;22.27;;;7.60;;
31482;SDS011;18103;52.246;8.052;2023-03-03T05:40:12;27.83;;;8.63;;
31482;SDS011;18103;52.246;8.052;2023-03-03T05:42:38;23.90;;;7.47;;
31482;SDS011;18103;52.246;8.052;2023-03-03T05:45:04;22.57;;;6.60;;
31482;SDS011;18103;52.246;8.052;2023-03-03T05:47:30;18.93;;;7.13;;
31482;SDS011;18103;52.246;8.052;2023-03-03T05:49:55;22.30;;;7.73;;
31482;SDS011;18103;52.246;8.052;2023-03-03T05:52:21;15.17;;;6.77;;
31482;SDS011;18103;52.246;8.052;2023-03-03T05:54:48;18.40;;;7.25;;
31482;SDS011;18103;52.246;8.052;2023-03-03T05:57:13;23.40;;;8.63;;
31482;SDS011;18103;52.246;8.052;2023-03-03T05:59:39;21.30;;;7.07;;
31482;SDS011;18103;52.246;8.052;2023-03-03T06:02:04;17.73;;;6.07;;
31482;SDS011;18103;52.246;8.052;2023-03-03T06:04:30;16.37;;;6.67;;
31482;SDS011;18103;52.246;8.052;2023-03-03T06:06:55;21.70;;;7.60;;
31482;SDS011;18103;52.246;8.052;2023-03-03T06:09:20;19.57;;;7.83;;
31482;SDS011;18103;52.246;8.052;2023-03-03T06:11:46;21.13;;;7.23;;
31482;SDS011;18103;52.246;8.052;2023-03-03T06:14:11;30.70;;;8.13;;
31482;SDS011;18103;52.246;8.052;2023-03-03T06:16:37;23.10;;;7.33;;
31482;SDS011;18103;52.246;8.052;2023-03-03T06:19:03;24.93;;;9.03;;
31482;SDS011;18103;52.246;8.052;2023-03-03T06:21:28;19.53;;;7.07;;
31482;SDS011;18103;52.246;8.052;2023-03-03T06:23:54;19.60;;;6.37;;
31482;SDS011;18103;52.246;8.052;2023-03-03T06:26:19;19.33;;;6.73;;
31482;SDS011;18103;52.246;8.052;2023-03-03T06:28:45;20.47;;;7.33;;
31482;SDS011;18103;52.246;8.052;2023-03-03T06:31:10;18.23;;;6.77;;
31482;SDS011;18103;52.246;8.052;2023-03-03T06:33:36;22.33;;;7.13;;
31482;SDS011;18103;52.246;8.052;2023-03-03T06:36:02;21.95;;;7.45;;
31482;SDS011;18103;52.246;8.052;2023-03-03T06:38:27;26.87;;;8.23;;
31482;SDS011;18103;52.246;8.052;2023-03-03T06:40:53;27.70;;;8.87;;
31482;SDS011;18103;52.246;8.052;2023-03-03T06:43:18;28.63;;;8.03;;
31482;SDS011;18103;52.246;8.052;2023-03-03T06:45:44;26.50;;;8.30;;
31482;SDS011;18103;52.246;8.052;2023-03-03T06:48:10;27.67;;;7.43;;
31482;SDS011;18103;52.246;8.052;2023-03-03T06:50:35;29.37;;;8.80;;
31482;SDS011;18103;52.246;8.052;2023-03-03T06:53:09;24.02;;;9.75;;
31482;SDS011;18103;52.246;8.052;2023-03-03T06:55:36;25.73;;;8.50;;
31482;SDS011;18103;52.246;8.052;2023-03-03T06:58:06;26.40;;;8.13;;
31482;SDS011;18103;52.246;8.052;2023-03-03T07:00:36;27.38;;;9.57;;
31482;SDS011;18103;52.246;8.052;2023-03-03T07:03:06;30.60;;;9.47;;
31482;SDS011;18103;52.246;8.052;2023-03-03T07:05:37;26.92;;;9.00;;
31482;SDS011;18103;52.246;8.052;2023-03-03T07:08:05;20.70;;;7.27;;
31482;SDS011;18103;52.246;8.052;2023-03-03T07:10:37;27.13;;;9.13;;
31482;SDS011;18103;52.246;8.052;2023-03-03T07:13:25;28.83;;;9.15;;
31482;SDS011;18103;52.246;8.052;2023-03-03T07:15:53;31.42;;;8.13;;
31482;SDS011;18103;52.246;8.052;2023-03-03T07:21:19;18.50;;;6.88;;
31482;SDS011;18103;52.246;8.052;2023-03-03T07:23:49;19.90;;;7.53;;
31482;SDS011;18103;52.246;8.052;2023-03-03T07:26:20;26.00;;;6.43;;
31482;SDS011;18103;52.246;8.052;2023-03-03T07:29:00;22.98;;;7.25;;
31482;SDS011;18103;52.246;8.052;2023-03-03T07:31:38;22.20;;;8.67;;
31482;SDS011;18103;52.246;8.052;2023-03-03T07:36:45;19.70;;;7.43;;
31482;SDS011;18103;52.246;8.052;2023-03-03T07:39:20;25.43;;;8.33;;
31482;SDS011;18103;52.246;8.052;2023-03-03T07:41:53;16.87;;;6.07;;
31482;SDS011;18103;52.246;8.052;2023-03-03T07:44:26;16.30;;;6.50;;
31482;SDS011;18103;52.246;8.052;2023-03-03T07:49:55;29.17;;;8.13;;
31482;SDS011;18103;52.246;8.052;2023-03-03T07:55:00;26.40;;;8.07;;
31482;SDS011;18103;52.246;8.052;2023-03-03T07:57:43;20.92;;;7.97;;
31482;SDS011;18103;52.246;8.052;2023-03-03T08:02:42;19.47;;;7.50;;
31482;SDS011;18103;52.246;8.052;2023-03-03T08:05:30;21.23;;;7.90;;
31482;SDS011;18103;52.246;8.052;2023-03-03T08:08:25;18.90;;;7.20;;
31482;SDS011;18103;52.246;8.052;2023-03-03T08:11:01;19.08;;;7.22;;
31482;SDS011;18103;52.246;8.052;2023-03-03T08:16:00;25.60;;;8.27;;
31482;SDS011;18103;52.246;8.052;2023-03-03T08:18:49;22.92;;;8.35;;
31482;SDS011;18103;52.246;8.052;2023-03-03T08:23:46;23.92;;;8.27;;
31482;SDS011;18103;52.246;8.052;2023-03-03T08:26:13;19.63;;;6.93;;
31482;SDS011;18103;52.246;8.052;2023-03-03T08:28:38;23.87;;;8.97;;
31482;SDS011;18103;52.246;8.052;2023-03-03T08:31:04;27.70;;;8.90;;
31482;SDS011;18103;52.246;8.052;2023-03-03T08:33:29;28.77;;;8.73;;
31482;SDS011;18103;52.246;8.052;2023-03-03T08:35:55;27.13;;;8.03;;
31482;SDS011;18103;52.246;8.052;2023-03-03T08:38:20;23.87;;;8.17;;
31482;SDS011;18103;52.246;8.052;2023-03-03T08:40:46;25.00;;;8.53;;
31482;SDS011;18103;52.246;8.052;2023-03-03T08:43:12;21.97;;;8.00;;
31482;SDS011;18103;52.246;8.052;2023-03-03T08:45:44;28.13;;;8.57;;
31482;SDS011;18103;52.246;8.052;2023-03-03T08:48:10;19.70;;;8.03;;
31482;SDS011;18103;52.246;8.052;2023-03-03T08:50:36;25.93;;;8.97;;
31482;SDS011;18103;52.246;8.052;2023-03-03T08:53:02;25.90;;;7.37;;
31482;SDS011;18103;52.246;8.052;2023-03-03T08:55:28;29.57;;;9.23;;
31482;SDS011;18103;52.246;8.052;2023-03-03T08:57:53;23.67;;;7.93;;
31482;SDS011;18103;52.246;8.052;2023-03-03T09:00:19;21.83;;;8.60;;
31482;SDS011;18103;52.246;8.052;2023-03-03T09:02:45;33.00;;;10.33;;
31482;SDS011;18103;52.246;8.052;2023-03-03T09:05:10;20.53;;;7.20;;
31482;SDS011;18103;52.246;8.052;2023-03-03T09:07:36;34.57;;;9.40;;
31482;SDS011;18103;52.246;8.052;2023-03-03T09:10:03;27.03;;;8.93;;
31482;SDS011;18103;52.246;8.052;2023-03-03T09:12:32;30.07;;;8.63;;
31482;SDS011;18103;52.246;8.052;2023-03-03T09:15:02;31.23;;;8.60;;
31482;SDS011;18103;52.246;8.052;2023-03-03T09:17:39;19.47;;;8.17;;
31482;SDS011;18103;52.246;8.052;2023-03-03T09:22:52;29.30;;;8.80;;
31482;SDS011;18103;52.246;8.052;2023-03-03T09:27:56;28.60;;;11.53;;
31482;SDS011;18103;52.246;8.052;2023-03-03T09:32:46;37.40;;;8.97;;
31482;SDS011;18103;52.246;8.052;2023-03-03T09:37:55;34.37;;;9.50;;
31482;SDS011;18103;52.246;8.052;2023-03-03T09:43:01;32.90;;;9.23;;
31482;SDS011;18103;52.246;8.052;2023-03-03T09:45:45;29.80;;;10.33;;
31482;SDS011;18103;52.246;8.052;2023-03-03T09:49:17;35.20;;;9.87;;
31482;SDS011;18103;52.246;8.052;2023-03-03T09:54:27;32.93;;;9.40;;
31482;SDS011;18103;52.246;8.052;2023-03-03T09:57:04;36.53;;;10.80;;
31482;SDS011;18103;52.246;8.052;2023-03-03T09:59:46;42.33;;;10.33;;
31482;SDS011;18103;52.246;8.052;2023-03-03T10:02:52;33.87;;;10.93;;
31482;SDS011;18103;52.246;8.052;2023-03-03T10:05:37;33.57;;;10.90;;
31482;SDS011;18103;52.246;8.052;2023-03-03T10:14:05;40.67;;;12.47;;
31482;SDS011;18103;52.246;8.052;2023-03-03T10:22:01;43.00;;;13.33;;
31482;SDS011;18103;52.246;8.052;2023-03-03T10:35:48;48.67;;;14.07;;
31482;SDS011;18103;52.246;8.052;2023-03-03T10:41:41;54.80;;;13.60;;
31482;SDS011;18103;52.246;8.052;2023-03-03T10:47:31;41.77;;;11.13;;
31482;SDS011;18103;52.246;8.052;2023-03-03T10:58:45;44.63;;;13.27;;
31482;SDS011;18103;52.246;8.052;2023-03-03T11:10:26;46.43;;;13.97;;
31482;SDS011;18103;52.246;8.052;2023-03-03T11:12:40;46.43;;;13.73;;
31482;SDS011;18103;52.246;8.052;2023-03-03T11:15:29;46.23;;;14.40;;
31482;SDS011;18103;52.246;8.052;2023-03-03T11:18:11;47.47;;;13.63;;
31482;SDS011;18103;52.246;8.052;2023-03-03T11:31:44;45.50;;;12.47;;
31482;SDS011;18103;52.246;8.052;2023-03-03T11:37:09;40.73;;;13.20;;
31482;SDS011;18103;52.246;8.052;2023-03-03T11:39:43;39.27;;;12.10;;
31482;SDS011;18103;52.246;8.052;2023-03-03T11:42:43;44.80;;;12.60;;
31482;SDS011;18103;52.246;8.052;2023-03-03T11:45:19;29.33;;;11.47;;
31482;SDS011;18103;52.246;8.052;2023-03-03T11:48:10;27.70;;;11.27;;
31482;SDS011;18103;52.246;8.052;2023-03-03T11:50:56;33.70;;;12.07;;
31482;SDS011;18103;52.246;8.052;2023-03-03T11:56:01;35.60;;;11.83;;
31482;SDS011;18103;52.246;8.052;2023-03-03T11:58:49;35.47;;;12.23;;
31482;SDS011;18103;52.246;8.052;2023-03-03T12:01:35;43.20;;;11.97;;
31482;SDS011;18103;52.246;8.052;2023-03-03T12:04:08;30.80;;;11.47;;
31482;SDS011;18103;52.246;8.052;2023-03-03T12:06:52;30.77;;;11.43;;
31482;SDS011;18103;52.246;8.052;2023-03-03T12:09:35;29.80;;;10.57;;
31482;SDS011;18103;52.246;8.052;2023-03-03T12:12:14;25.53;;;9.57;;
31482;SDS011;18103;52.246;8.052;2023-03-03T12:25:45;34.40;;;10.00;;
31482;SDS011;18103;52.246;8.052;2023-03-03T12:30:59;26.00;;;9.17;;
31482;SDS011;18103;52.246;8.052;2023-03-03T12:38:53;32.00;;;9.97;;
31482;SDS011;18103;52.246;8.052;2023-03-03T12:41:26;31.30;;;10.00;;
31482;SDS011;18103;52.246;8.052;2023-03-03T12:49:11;22.53;;;9.33;;
31482;SDS011;18103;52.246;8.052;2023-03-03T12:56:57;25.77;;;9.10;;
31482;SDS011;18103;52.246;8.052;2023-03-03T13:10:17;23.23;;;8.77;;
31482;SDS011;18103;52.246;8.052;2023-03-03T13:15:52;19.67;;;8.10;;
31482;SDS011;18103;52.246;8.052;2023-03-03T13:18:38;17.07;;;7.40;;
31482;SDS011;18103;52.246;8.052;2023-03-03T13:26:53;25.27;;;8.33;;
31482;SDS011;18103;52.246;8.052;2023-03-03T13:39:52;14.03;;;6.13;;
31482;SDS011;18103;52.246;8.052;2023-03-03T13:44:57;12.10;;;6.43;;
31482;SDS011;18103;52.246;8.052;2023-03-03T13:47:32;12.50;;;6.07;;
31482;SDS011;18103;52.246;8.052;2023-03-03T13:50:12;18.20;;;7.30;;
31482;SDS011;18103;52.246;8.052;2023-03-03T13:52:58;12.93;;;6.60;;
31482;SDS011;18103;52.246;8.052;2023-03-03T13:58:00;14.30;;;7.10;;
31482;SDS011;18103;52.246;8.052;2023-03-03T14:03:21;14.23;;;5.97;;
31482;SDS011;18103;52.246;8.052;2023-03-03T14:06:08;13.97;;;6.27;;
31482;SDS011;18103;52.246;8.052;2023-03-03T14:11:26;17.37;;;6.17;;
31482;SDS011;18103;52.246;8.052;2023-03-03T14:14:00;18.57;;;5.73;;
31482;SDS011;18103;52.246;8.052;2023-03-03T14:20:33;16.30;;;7.03;;
31482;SDS011;18103;52.246;8.052;2023-03-03T14:23:13;16.63;;;6.80;;
31482;SDS011;18103;52.246;8.052;2023-03-03T14:25:22;11.93;;;5.93;;
31482;SDS011;18103;52.246;8.052;2023-03-03T14:28:01;14.33;;;5.80;;
31482;SDS011;18103;52.246;8.052;2023-03-03T14:43:38;17.00;;;6.57;;
31482;SDS011;18103;52.246;8.052;2023-03-03T14:49:15;12.77;;;6.13;;
31482;SDS011;18103;52.246;8.052;2023-03-03T14:54:45;14.73;;;6.30;;
31482;SDS011;18103;52.246;8.052;2023-03-03T14:57:16;17.47;;;6.40;;
31482;SDS011;18103;52.246;8.052;2023-03-03T15:05:24;16.57;;;6.43;;
31482;SDS011;18103;52.246;8.052;2023-03-03T15:07:57;16.03;;;6.83;;
31482;SDS011;18103;52.246;8.052;2023-03-03T15:10:40;18.03;;;7.60;;
31482;SDS011;18103;52.246;8.052;2023-03-03T15:15:50;18.67;;;6.90;;
31482;SDS011;18103;52.246;8.052;2023-03-03T15:18:28;14.67;;;6.50;;
31482;SDS011;18103;52.246;8.052;2023-03-03T15:42:21;14.50;;;7.07;;
31482;SDS011;18103;52.246;8.052;2023-03-03T15:44:55;13.83;;;6.87;;
31482;SDS011;18103;52.246;8.052;2023-03-03T15:55:12;13.07;;;6.77;;
31482;SDS011;18103;52.246;8.052;2023-03-03T16:03:13;20.70;;;5.40;;
31482;SDS011;18103;52.246;8.052;2023-03-03T16:05:54;14.40;;;6.37;;
31482;SDS011;18103;52.246;8.052;2023-03-03T16:08:29;13.67;;;7.07;;
31482;SDS011;18103;52.246;8.052;2023-03-03T16:14:30;14.67;;;7.33;;
31482;SDS011;18103;52.246;8.052;2023-03-03T16:17:21;15.80;;;6.80;;
31482;SDS011;18103;52.246;8.052;2023-03-03T16:23:09;23.37;;;7.57;;
31482;SDS011;18103;52.246;8.052;2023-03-03T16:31:21;16.03;;;6.30;;
31482;SDS011;18103;52.246;8.052;2023-03-03T16:37:13;16.53;;;7.93;;
31482;SDS011;18103;52.246;8.052;2023-03-03T16:42:20;18.80;;;7.80;;
31482;SDS011;18103;52.246;8.052;2023-03-03T16:44:59;19.73;;;8.37;;
31482;SDS011;18103;52.246;8.052;2023-03-03T16:50:04;12.00;;;6.23;;
31482;SDS011;18103;52.246;8.052;2023-03-03T17:01:26;8.03;;;4.53;;
31482;SDS011;18103;52.246;8.052;2023-03-03T17:06:52;11.53;;;5.83;;
31482;SDS011;18103;52.246;8.052;2023-03-03T17:09:43;8.50;;;4.07;;
31482;SDS011;18103;52.246;8.052;2023-03-03T17:15:18;6.90;;;4.20;;
31482;SDS011;18103;52.246;8.052;2023-03-03T17:20:38;6.37;;;4.47;;
31482;SDS011;18103;52.246;8.052;2023-03-03T17:45:12;6.57;;;3.90;;
31482;SDS011;18103;52.246;8.052;2023-03-03T17:50:26;8.63;;;4.10;;
31482;SDS011;18103;52.246;8.052;2023-03-03T17:56:22;7.50;;;3.67;;
31482;SDS011;18103;52.246;8.052;2023-03-03T18:07:19;20.60;;;9.03;;
31482;SDS011;18103;52.246;8.052;2023-03-03T18:10:01;31.90;;;10.57;;
31482;SDS011;18103;52.246;8.052;2023-03-03T18:15:36;9.57;;;3.37;;
31482;SDS011;18103;52.246;8.052;2023-03-03T18:21:09;3.60;;;2.80;;
31482;SDS011;18103;52.246;8.052;2023-03-03T18:23:44;5.33;;;2.57;;
31482;SDS011;18103;52.246;8.052;2023-03-03T18:26:31;6.47;;;2.97;;
31482;SDS011;18103;52.246;8.052;2023-03-03T18:34:35;6.27;;;3.33;;
31482;SDS011;18103;52.246;8.052;2023-03-03T18:37:06;9.13;;;4.23;;
31482;SDS011;18103;52.246;8.052;2023-03-03T18:40:14;6.57;;;3.23;;
31482;SDS011;18103;52.246;8.052;2023-03-03T18:42:41;5.33;;;3.27;;
31482;SDS011;18103;52.246;8.052;2023-03-03T18:50:40;9.53;;;3.70;;
31482;SDS011;18103;52.246;8.052;2023-03-03T18:53:23;13.97;;;5.53;;
31482;SDS011;18103;52.246;8.052;2023-03-03T18:55:53;6.07;;;3.57;;
31482;SDS011;18103;52.246;8.052;2023-03-03T18:58:37;10.20;;;4.53;;
31482;SDS011;18103;52.246;8.052;2023-03-03T19:03:35;8.73;;;4.97;;
31482;SDS011;18103;52.246;8.052;2023-03-03T19:06:11;5.37;;;4.17;;
31482;SDS011;18103;52.246;8.052;2023-03-03T19:09:02;8.13;;;4.07;;
31482;SDS011;18103;52.246;8.052;2023-03-03T19:11:51;9.17;;;4.00;;
31482;SDS011;18103;52.246;8.052;2023-03-03T19:16:41;20.40;;;6.87;;
31482;SDS011;18103;52.246;8.052;2023-03-03T19:19:17;7.33;;;3.93;;
31482;SDS011;18103;52.246;8.052;2023-03-03T19:21:46;4.43;;;2.70;;
31482;SDS011;18103;52.246;8.052;2023-03-03T19:29:54;4.93;;;3.27;;
31482;SDS011;18103;52.246;8.052;2023-03-03T19:38:10;6.30;;;3.10;;
31482;SDS011;18103;52.246;8.052;2023-03-03T19:40:53;13.97;;;5.33;;
31482;SDS011;18103;52.246;8.052;2023-03-03T19:47:00;8.90;;;3.57;;
31482;SDS011;18103;52.246;8.052;2023-03-03T19:49:17;7.83;;;2.90;;
31482;SDS011;18103;52.246;8.052;2023-03-03T19:51:46;14.07;;;3.17;;
31482;SDS011;18103;52.246;8.052;2023-03-03T20:06:02;12.20;;;4.97;;
31482;SDS011;18103;52.246;8.052;2023-03-03T20:08:53;8.23;;;2.83;;
31482;SDS011;18103;52.246;8.052;2023-03-03T20:11:41;8.73;;;2.90;;
31482;SDS011;18103;52.246;8.052;2023-03-03T20:14:38;8.50;;;2.60;;
31482;SDS011;18103;52.246;8.052;2023-03-03T20:28:14;8.43;;;2.97;;
31482;SDS011;18103;52.246;8.052;2023-03-03T20:39:44;11.17;;;2.40;;
31482;SDS011;18103;52.246;8.052;2023-03-03T20:45:29;14.13;;;5.93;;
31482;SDS011;18103;52.246;8.052;2023-03-03T20:48:08;12.77;;;3.53;;
31482;SDS011;18103;52.246;8.052;2023-03-03T21:02:50;15.17;;;2.37;;
31482;SDS011;18103;52.246;8.052;2023-03-03T21:05:30;8.70;;;1.57;;
31482;SDS011;18103;52.246;8.052;2023-03-03T21:07:57;9.10;;;1.67;;
31482;SDS011;18103;52.246;8.052;2023-03-03T21:10:28;14.67;;;2.00;;
31482;SDS011;18103;52.246;8.052;2023-03-03T21:12:57;11.40;;;2.23;;
31482;SDS011;18103;52.246;8.052;2023-03-03T21:15:42;11.27;;;2.33;;
31482;SDS011;18103;52.246;8.052;2023-03-03T21:18:18;12.63;;;1.97;;
31482;SDS011;18103;52.246;8.052;2023-03-03T21:20:46;9.80;;;1.87;;
31482;SDS011;18103;52.246;8.052;2023-03-03T21:23:11;12.83;;;2.67;;
31482;SDS011;18103;52.246;8.052;2023-03-03T21:25:43;10.53;;;2.07;;
31482;SDS011;18103;52.246;8.052;2023-03-03T21:28:13;15.53;;;2.80;;
31482;SDS011;18103;52.246;8.052;2023-03-03T21:36:18;13.87;;;2.90;;
31482;SDS011;18103;52.246;8.052;2023-03-03T21:38:56;16.83;;;2.57;;
31482;SDS011;18103;52.246;8.052;2023-03-03T21:41:22;14.47;;;2.37;;
31482;SDS011;18103;52.246;8.052;2023-03-03T21:43:49;20.37;;;3.43;;
31482;SDS011;18103;52.246;8.052;2023-03-03T21:46:17;7.93;;;1.90;;
31482;SDS011;18103;52.246;8.052;2023-03-03T21:48:47;15.73;;;2.70;;
31482;SDS011;18103;52.246;8.052;2023-03-03T21:51:13;6.43;;;2.47;;
31482;SDS011;18103;52.246;8.052;2023-03-03T21:53:40;8.73;;;2.33;;
31482;SDS011;18103;52.246;8.052;2023-03-03T21:56:09;12.97;;;2.57;;
31482;SDS011;18103;52.246;8.052;2023-03-03T21:58:37;12.13;;;2.30;;
31482;SDS011;18103;52.246;8.052;2023-03-03T22:01:05;14.13;;;2.33;;